Latest Coastal Weather Observations for Stenhouse Bay

IDS60701

Issued at 4:31 am CST Monday 26 September 2016 (issued every 10 minutes, with the page automatically refreshed every 10 minutes)

About coastal observations | Map of coastal stations | Coastal observations for SA | Marine services | Other Formats
Station Details ID: 022049 Name: STENHOUSE BAY Lat: -35.28 Lon: 136.94 Height: 42.0 m
Data from the previous 72 hours. | See also: Recent months at Stenhouse Bay
Date/Time
CST
Temp
°C
Wind Pressure Rain since
9am
mm
Weather Cloud Vis
km
Sea
Height
m
Swell
Dir  Spd
kts
Gust
kts
hPa Trend Height
m
Period
s
Dir
26/04:30am 8.3 NNW 8 10 1010.4 - 0.0 - - - - - - -
26/04:00am 7.5 N 8 9 1010.2 - 0.0 - - - - - - -
26/03:30am 8.0 N 10 12 1010.6 - 0.0 - - - - - - -
26/03:00am 7.4 N 9 11 1010.5 - 0.0 - - - - - - -
26/02:30am 7.0 N 8 10 1010.8 - 0.0 - - - - - - -
26/02:00am 7.3 N 8 9 1010.7 - 0.0 - - - - - - -
26/01:30am 7.2 N 7 7 1011.6 - 0.0 - - - - - - -
26/01:00am 7.4 N 5 7 1012.7 - 0.0 - - - - - - -
26/12:30am 7.6 N 4 5 1013.3 - 0.0 - - - - - - -
26/12:00am 7.2 NNW 4 5 1013.7 - 0.0 - - - - - - -
 
Date/Time
CST
Temp
°C
Wind Pressure Rain since
9am
mm
Weather Cloud Vis
km
Sea
Height
m
Swell
Dir  Spd
kts
Gust
kts
hPa Trend Height
m
Period
s
Dir
25/11:30pm 6.8 N 5 5 1014.0 - 0.0 - - - - - - -
25/11:00pm 6.7 N 4 5 1014.4 - 0.0 - - - - - - -
25/10:30pm 7.3 N 4 5 1014.6 - 0.0 - - - - - - -
25/10:00pm 7.8 N 4 5 1014.8 - 0.0 - - - - - - -
25/09:30pm 8.5 N 4 5 1014.9 - 0.0 - - - - - - -
25/09:00pm 8.8 N 4 5 1014.8 - 0.0 - - - - - - -
25/08:30pm 9.5 NNW 4 5 1014.5 - 0.0 - - - - - - -
25/08:00pm 10.8 WNW 5 7 1014.5 - 0.0 - - - - - - -
25/07:30pm 10.9 WNW 5 7 1014.5 - 0.0 - - - - - - -
25/07:00pm 10.4 W 5 7 1014.2 - 0.0 - - - - - - -
25/06:30pm 10.7 NW 4 5 1013.9 - 0.0 - - - - - - -
25/06:00pm 11.5 NNW 5 6 1013.6 - 0.0 - - - - - - -
25/05:30pm 12.0 NW 7 10 1013.7 - 0.0 - - - - - - -
25/05:00pm 12.9 NNW 7 12 1013.5 - 0.0 - - - - - - -
25/04:30pm 12.1 WNW 10 17 1013.6 - 0.0 - - - - - - -
25/04:00pm 13.8 NW 8 14 1013.3 - 0.0 - - - - - - -
25/03:30pm 14.4 NW 7 12 1013.3 - 0.0 - - - - - - -
25/03:00pm 16.1 NW 9 16 1013.3 - 0.0 - - - - - - -
25/02:30pm 16.1 NW 13 18 1013.4 - 0.0 - - - - - - -
25/02:00pm 14.4 NW 11 18 1013.7 - 0.0 - - - - - - -
25/01:30pm 13.9 NW 11 18 1014.1 - 0.0 - - - - - - -
25/01:00pm 14.3 NW 10 18 1014.2 - 0.0 - - - - - - -
25/12:30pm 13.7 W 10 15 1014.5 - 0.0 - - - - - - -
25/12:00pm 13.9 W 8 13 1014.5 - 0.0 - - - - - - -
25/11:30am 15.4 W 9 13 1014.8 - 0.0 - - - - - - -
25/11:00am 14.0 W 9 13 1015.0 - 0.0 - - - - - - -
25/10:30am 14.7 WSW 7 9 1015.2 - 0.0 - - - - - - -
25/10:00am 13.2 WSW 6 10 1015.6 - 0.0 - - - - - - -
25/09:30am 13.5 WSW 6 9 1015.4 - 0.0 - - - - - - -
25/09:00am 12.4 WSW 8 11 1015.4 - 0.4 - - - - - - -
25/08:30am 11.2 W 8 13 1015.5 - 0.4 - - - - - - -
25/08:00am 10.0 WSW 11 21 1015.4 - 0.4 - - - - - - -
25/07:50am 11.1 WSW 15 24 1015.5 - 0.2 - - - - - - -
25/07:30am 12.8 W 8 12 1015.0 - 0.0 - - - - - - -
25/07:00am 11.6 W 8 12 1014.9 - 0.0 - - - - - - -
25/06:30am 10.0 W 8 10 1014.5 - 0.0 - - - - - - -
25/06:00am 10.3 WSW 8 14 1014.2 - 0.0 - - - - - - -
25/05:30am 10.9 WSW 9 13 1013.8 - 0.0 - - - - - - -
25/05:00am 10.0 WSW 9 11 1013.6 - 0.0 - - - - - - -
25/04:30am 10.2 WSW 10 15 1013.2 - 0.0 - - - - - - -
25/04:00am 10.5 WSW 8 13 1012.8 - 0.0 - - - - - - -
25/03:30am 11.3 WSW 11 16 1012.8 - 0.0 - - - - - - -
25/03:00am 11.0 WSW 11 16 1012.8 - 0.0 - - - - - - -
25/02:30am 11.2 WSW 11 17 1012.7 - 0.0 - - - - - - -
25/02:00am 11.3 WSW 10 14 1012.7 - 0.0 - - - - - - -
25/01:30am 11.2 SW 13 18 1012.7 - 0.0 - - - - - - -
25/01:00am 11.4 WSW 13 17 1013.0 - 0.0 - - - - - - -
25/12:30am 10.6 WSW 10 14 1013.2 - 0.0 - - - - - - -
25/12:00am 11.1 WSW 12 18 1012.9 - 0.0 - - - - - - -
 
Date/Time
CST
Temp
°C
Wind Pressure Rain since
9am
mm
Weather Cloud Vis
km
Sea
Height
m
Swell
Dir  Spd
kts
Gust
kts
hPa Trend Height
m
Period
s
Dir
24/11:30pm 11.3 SW 13 18 1012.9 - 0.0 - - - - - - -
24/11:00pm 11.5 WSW 13 20 1013.1 - 0.0 - - - - - - -
24/10:30pm 11.1 WSW 13 18 1013.0 - 0.0 - - - - - - -
24/10:00pm 10.3 WSW 9 15 1012.9 - 0.0 - - - - - - -
24/09:30pm 10.5 WSW 16 26 1013.0 - 0.0 - - - - - - -
24/09:27pm 10.7 WSW 15 26 1012.9 - 0.0 - - - - - - -
24/09:00pm 11.8 WSW 13 17 1012.7 - 0.0 - - - - - - -
24/08:30pm 11.6 WSW 11 16 1012.6 - 0.0 - - - - - - -
24/08:00pm 11.8 SW 15 21 1012.1 - 0.0 - - - - - - -
24/07:30pm 11.9 WSW 15 20 1011.5 - 0.0 - - - - - - -
24/07:00pm 12.1 WSW 13 19 1011.1 - 0.0 - - - - - - -
24/06:30pm 11.9 WSW 14 21 1010.7 - 0.0 - - - - - - -
24/06:00pm 12.2 SW 15 21 1010.3 - 0.0 - - - - - - -
24/05:30pm 12.8 SW 18 25 1009.8 - 0.0 - - - - - - -
24/05:00pm 13.3 SW 16 21 1009.2 - 0.0 - - - - - - -
24/04:30pm 13.9 SW 15 23 1008.7 - 0.0 - - - - - - -
24/04:00pm 14.1 SW 14 22 1008.2 - 0.0 - - - - - - -
24/03:30pm 14.5 SW 16 21 1007.7 - 0.0 - - - - - - -
24/03:00pm 14.5 SW 16 21 1007.3 - 0.0 - - - - - - -
24/02:30pm 15.2 SW 15 20 1007.0 - 0.0 - - - - - - -
24/02:00pm 15.4 SW 15 21 1006.9 - 0.0 - - - - - - -
24/01:30pm 15.4 SW 14 20 1006.9 - 0.0 - - - - - - -
24/01:00pm 14.5 SW 17 23 1006.8 - 0.0 - - - - - - -
24/12:30pm 15.5 SW 12 16 1006.7 - 0.0 - - - - - - -
24/12:00pm 14.8 SW 13 17 1006.8 - 0.0 - - - - - - -
24/11:30am 14.7 SW 12 16 1006.7 - 0.0 - - - - - - -
24/11:00am 15.7 WSW 10 14 1006.4 - 0.0 - - - - - - -
24/10:30am 14.7 SW 13 18 1006.3 - 0.0 - - - - - - -
24/10:00am 14.8 SW 15 19 1006.1 - 0.0 - - - - - - -
24/09:30am 14.7 SW 16 21 1006.0 - 0.0 - - - - - - -
24/09:00am 14.1 SW 15 22 1005.8 - 0.0 - - - - - - -
24/08:30am 14.2 WSW 13 18 1005.6 - 0.0 - - - - - - -
24/08:00am 13.7 SW 14 19 1005.1 - 0.0 - - - - - - -
24/07:30am 13.8 WSW 13 19 1004.7 - 0.0 - - - - - - -
24/07:00am 14.1 W 7 10 1004.2 - 0.0 - - - - - - -
24/06:30am 13.6 W 8 12 1003.8 - 0.0 - - - - - - -
24/06:00am 14.0 W 10 15 1003.3 - 0.0 - - - - - - -
24/05:30am 14.5 WNW 11 17 1002.9 - 0.0 - - - - - - -
24/05:00am 14.5 NNW 12 16 1002.4 - 0.0 - - - - - - -
24/04:30am 14.5 NNW 13 19 1002.1 - 0.0 - - - - - - -
24/04:00am 14.0 NNW 8 12 1002.4 - 0.0 - - - - - - -
24/03:30am 14.7 NNW 10 13 1002.4 - 0.0 - - - - - - -
24/03:00am 14.2 N 10 14 1002.4 - 0.0 - - - - - - -
24/02:30am 14.3 NNW 7 11 1002.5 - 0.0 - - - - - - -
24/02:00am 14.8 NNW 8 10 1003.2 - 0.0 - - - - - - -
24/01:30am 15.6 NNW 12 17 1003.3 - 0.0 - - - - - - -
24/01:00am 15.6 N 12 19 1003.5 - 0.0 - - - - - - -
24/12:30am 15.8 N 13 19 1003.7 - 0.0 - - - - - - -
24/12:00am 15.5 N 13 21 1003.9 - 0.0 - - - - - - -
 
Date/Time
CST
Temp
°C
Wind Pressure Rain since
9am
mm
Weather Cloud Vis
km
Sea
Height
m
Swell
Dir  Spd
kts
Gust
kts
hPa Trend Height
m
Period
s
Dir
23/11:30pm 15.5 N 13 17 1003.9 - 0.0 - - - - - - -
23/11:00pm 15.6 N 15 18 1003.9 - 0.0 - - - - - - -
23/10:30pm 15.2 N 14 19 1004.1 - 0.0 - - - - - - -
23/10:00pm 15.4 N 15 19 1004.4 - 0.0 - - - - - - -
23/09:30pm 15.7 N 17 22 1004.6 - 0.0 - - - - - - -
23/09:00pm 15.8 NNE 15 21 1004.9 - 0.0 - - - - - - -
23/08:30pm 15.6 NNE 13 18 1005.1 - 0.0 - - - - - - -
23/08:00pm 14.3 NNE 9 12 1005.5 - 0.0 - - - - - - -
23/07:30pm 14.7 NNE 8 11 1005.2 - 0.0 - - - - - - -
23/07:00pm 15.3 NNE 10 13 1005.1 - 0.0 - - - - - - -
23/06:30pm 15.9 NNE 10 13 1005.0 - 0.0 - - - - - - -
23/06:00pm 16.9 NNE 9 15 1005.0 - 0.0 - - - - - - -
23/05:30pm 17.9 NNE 11 17 1004.8 - 0.0 - - - - - - -
23/05:00pm 18.6 NNE 13 17 1005.1 - 0.0 - - - - - - -
23/04:30pm 19.1 NNE 12 16 1005.4 - 0.0 - - - - - - -
23/04:00pm 19.2 NNE 13 17 1005.6 - 0.0 - - - - - - -
23/03:30pm 19.5 NNE 14 19 1005.8 - 0.0 - - - - - - -
23/03:00pm 19.5 NNE 13 18 1006.3 - 0.0 - - - - - - -
23/02:30pm 19.6 N 12 17 1006.8 - 0.0 - - - - - - -
23/02:00pm 19.7 N 12 15 1007.3 - 0.0 - - - - - - -
23/01:30pm 19.2 NNE 12 17 1007.9 - 0.0 - - - - - - -
23/01:00pm 18.9 N 13 19 1008.4 - 0.0 - - - - - - -
23/12:30pm 19.1 N 14 19 1008.9 - 0.0 - - - - - - -
23/12:00pm 19.0 N 16 21 1009.4 - 0.0 - - - - - - -
23/11:30am 18.8 N 16 22 1009.9 - 0.0 - - - - - - -
23/11:00am 17.8 NNW 15 20 1010.6 - 0.0 - - - - - - -
23/10:30am 17.2 N 16 21 1010.9 - 0.0 - - - - - - -
23/10:00am 16.6 N 15 20 1011.3 - 0.0 - - - - - - -
23/09:30am 15.8 N 15 21 1011.8 - 0.0 - - - - - - -
23/09:00am 14.0 N 12 17 1012.0 - 0.2 - - - - - - -
23/08:30am 12.8 N 12 16 1012.5 - 0.2 - - - - - - -
23/08:00am 11.4 N 9 11 1012.6 - 0.2 - - - - - - -
23/07:30am 9.8 N 8 11 1012.5 - 0.2 - - - - - - -
23/07:00am 8.6 NE 8 12 1012.5 - 0.2 - - - - - - -
23/06:30am 8.3 NNE 9 12 1012.6 - 0.2 - - - - - - -
23/06:00am 9.2 NE 13 17 1012.6 - 0.2 - - - - - - -
23/05:30am 9.3 NE 13 17 1012.9 - 0.2 - - - - - - -
23/05:00am 9.2 NE 12 16 1013.3 - 0.2 - - - - - - -

Other Formats:

Comma delimited format used in spreadsheet applications
http://www.bom.gov.au/fwo/IDS60701/IDS60701.95806.axf

JavaScript Object Notation format (JSON) in row-major order
http://www.bom.gov.au/fwo/IDS60701/IDS60701.95806.json